createdAt,value
2022-12-19T00:00:08.667Z,94.37
2022-12-19T00:02:42.523Z,94.40
2022-12-19T00:05:10.955Z,77.13
2022-12-19T00:07:38.326Z,97.10
2022-12-19T00:10:07.207Z,92.27
2022-12-19T00:12:34.507Z,96.20
2022-12-19T00:15:01.853Z,86.87
2022-12-19T00:17:29.321Z,97.27
2022-12-19T00:19:56.570Z,77.70
2022-12-19T00:22:23.787Z,101.30
2022-12-19T00:24:51.065Z,98.20
2022-12-19T00:27:18.379Z,84.83
2022-12-19T00:29:45.785Z,102.23
2022-12-19T00:32:13.685Z,104.20
2022-12-19T00:34:43.402Z,109.83
2022-12-19T00:37:12.098Z,97.30
2022-12-19T00:39:39.355Z,105.77
2022-12-19T00:42:06.705Z,108.07
2022-12-19T00:44:34.103Z,101.67
2022-12-19T00:47:01.311Z,97.83
2022-12-19T00:49:28.727Z,104.03
2022-12-19T00:51:58.153Z,101.00
2022-12-19T00:54:25.577Z,104.93
2022-12-19T00:56:53.409Z,105.23
2022-12-19T00:59:26.648Z,95.13
2022-12-19T01:01:54.428Z,95.70
2022-12-19T01:04:29.084Z,100.80
2022-12-19T01:06:59.629Z,97.27
2022-12-19T01:09:31.048Z,106.53
2022-12-19T01:12:17.249Z,100.30
2022-12-19T01:14:46.524Z,94.83
2022-12-19T01:17:13.947Z,96.97
2022-12-19T01:19:44.304Z,87.73
2022-12-19T01:22:13.565Z,101.97
2022-12-19T01:24:41.665Z,71.30
2022-12-19T01:27:09.712Z,99.43
2022-12-19T01:32:43.922Z,98.17
2022-12-19T01:35:21.808Z,102.20
2022-12-19T01:38:03.344Z,96.23
2022-12-19T01:40:35.507Z,97.70
2022-12-19T01:43:03.196Z,95.70
2022-12-19T01:45:34.894Z,84.03
2022-12-19T01:48:20.758Z,76.30
2022-12-19T01:51:12.467Z,86.00
2022-12-19T01:54:08.114Z,84.33
2022-12-19T01:56:43.088Z,93.30
2022-12-19T01:59:19.586Z,87.23
2022-12-19T02:01:51.597Z,94.93
2022-12-19T02:04:20.382Z,69.07
2022-12-19T02:06:48.627Z,83.27
2022-12-19T02:09:16.391Z,71.47
2022-12-19T02:11:43.769Z,91.10
2022-12-19T02:14:10.970Z,70.83
2022-12-19T02:17:03.519Z,90.80
2022-12-19T02:20:08.259Z,90.40
2022-12-19T02:22:48.814Z,81.57
2022-12-19T02:25:54.847Z,81.43
2022-12-19T02:28:51.082Z,78.23
2022-12-19T02:31:46.110Z,78.73
2022-12-19T02:34:19.044Z,48.87
2022-12-19T02:36:53.922Z,55.60
2022-12-19T02:39:29.338Z,73.07
2022-12-19T02:42:00.443Z,71.70
2022-12-19T02:44:45.409Z,59.83
2022-12-19T02:47:14.345Z,59.27
2022-12-19T02:49:41.562Z,70.67
2022-12-19T02:52:34.458Z,61.00
2022-12-19T02:55:06.923Z,60.70
2022-12-19T02:58:01.487Z,50.47
2022-12-19T03:00:29.290Z,57.70
2022-12-19T03:03:00.648Z,56.70
2022-12-19T03:05:40.560Z,50.40
2022-12-19T03:08:28.060Z,59.10
2022-12-19T03:11:04.301Z,53.63
2022-12-19T03:14:11.561Z,57.30
2022-12-19T03:16:39.287Z,51.80
2022-12-19T03:19:14.507Z,42.23
2022-12-19T03:21:50.919Z,49.33
2022-12-19T03:24:19.188Z,54.60
2022-12-19T03:27:09.936Z,43.57
2022-12-19T03:29:54.075Z,48.33
2022-12-19T03:32:23.756Z,38.93
2022-12-19T03:35:08.837Z,52.23
2022-12-19T03:37:42.291Z,45.80
2022-12-19T03:40:22.887Z,45.70
2022-12-19T03:43:09.240Z,42.60
2022-12-19T03:46:00.654Z,43.90
2022-12-19T03:48:33.065Z,46.93
2022-12-19T03:51:27.329Z,44.30
2022-12-19T03:54:13.712Z,40.27
2022-12-19T03:56:53.452Z,44.70
2022-12-19T03:59:46.726Z,47.47
2022-12-19T04:02:15.853Z,50.13
2022-12-19T04:04:46.307Z,34.07
2022-12-19T04:07:15.178Z,38.87
2022-12-19T04:09:45.011Z,42.23
2022-12-19T04:12:17.559Z,46.43
2022-12-19T04:14:45.451Z,43.10
2022-12-19T04:17:18.353Z,44.97
2022-12-19T04:20:07.265Z,51.93
2022-12-19T04:23:03.210Z,47.97
2022-12-19T04:25:46.948Z,43.60
2022-12-19T04:28:26.765Z,49.50
2022-12-19T04:30:55.146Z,48.93
2022-12-19T04:33:22.321Z,48.53
2022-12-19T04:35:49.631Z,52.10
2022-12-19T04:38:16.860Z,45.93
2022-12-19T04:40:44.057Z,52.67
2022-12-19T04:43:11.236Z,52.00
2022-12-19T04:45:40.539Z,48.70
2022-12-19T04:48:08.966Z,34.83
2022-12-19T04:50:37.020Z,36.80
2022-12-19T04:53:04.605Z,43.00
2022-12-19T04:55:32.191Z,45.20
2022-12-19T04:57:59.396Z,38.67
2022-12-19T05:00:26.682Z,42.03
2022-12-19T05:02:54.341Z,41.97
2022-12-19T05:05:21.560Z,37.17
2022-12-19T05:07:48.866Z,35.27
2022-12-19T05:10:16.142Z,30.47
2022-12-19T05:12:43.739Z,41.70
2022-12-19T05:15:12.133Z,38.90
2022-12-19T05:17:39.372Z,41.67
2022-12-19T05:20:07.454Z,33.70
2022-12-19T05:22:34.688Z,44.73
2022-12-19T05:25:02.074Z,40.27
2022-12-19T05:27:29.235Z,32.67
2022-12-19T05:29:56.418Z,47.30
2022-12-19T05:32:23.893Z,44.70
2022-12-19T05:34:50.971Z,57.20
2022-12-19T05:37:18.063Z,43.77
2022-12-19T05:39:45.211Z,49.63
2022-12-19T05:42:14.673Z,50.70
2022-12-19T05:44:41.926Z,67.07
2022-12-19T05:47:09.205Z,40.40
2022-12-19T05:49:36.318Z,47.00
2022-12-19T05:52:03.471Z,45.93
2022-12-19T05:54:30.899Z,52.80
2022-12-19T05:56:58.446Z,42.53
2022-12-19T05:59:26.922Z,44.07
2022-12-19T06:01:54.822Z,43.43
2022-12-19T06:04:22.056Z,40.53
2022-12-19T06:06:49.247Z,50.03
2022-12-19T06:09:16.999Z,56.27
2022-12-19T06:11:44.256Z,61.27
2022-12-19T06:14:11.524Z,47.53
2022-12-19T06:16:38.765Z,127.80
2022-12-19T06:38:46.990Z,40.23
2022-12-19T06:41:34.166Z,51.50
2022-12-19T06:44:03.870Z,44.80
2022-12-19T06:46:32.846Z,60.00
2022-12-19T06:49:00.956Z,47.73
2022-12-19T06:51:28.673Z,58.97
2022-12-19T06:53:56.349Z,44.90
2022-12-19T06:56:24.288Z,73.43
2022-12-19T06:58:51.990Z,83.93
2022-12-19T07:01:23.410Z,100.87
2022-12-19T07:03:51.196Z,81.23
2022-12-19T07:06:18.968Z,87.50
2022-12-19T07:08:46.386Z,104.83
2022-12-19T07:11:14.033Z,60.67
2022-12-19T07:13:41.672Z,58.47
2022-12-19T07:16:09.760Z,62.97
2022-12-19T07:18:40.041Z,49.60
2022-12-19T07:21:14.949Z,59.90
2022-12-19T07:23:55.951Z,55.70
2022-12-19T07:26:23.707Z,48.97
2022-12-19T07:28:54.692Z,41.70
2022-12-19T07:31:26.361Z,44.03
2022-12-19T07:33:54.201Z,46.70
2022-12-19T07:36:23.487Z,44.97
2022-12-19T07:38:54.993Z,39.20
2022-12-19T07:41:22.364Z,41.80
2022-12-19T07:43:50.497Z,32.57
2022-12-19T07:46:17.839Z,37.17
2022-12-19T07:48:47.772Z,35.37
2022-12-19T07:51:17.655Z,48.47
2022-12-19T07:53:45.302Z,41.07
2022-12-19T07:56:12.476Z,37.07
2022-12-19T07:58:40.107Z,34.47
2022-12-19T08:01:07.850Z,33.77
2022-12-19T08:03:36.145Z,33.33
2022-12-19T08:06:05.651Z,34.83
2022-12-19T08:08:33.902Z,39.30
2022-12-19T08:11:19.030Z,38.40
2022-12-19T08:13:48.116Z,38.80
2022-12-19T08:16:15.692Z,31.77
2022-12-19T08:18:43.134Z,43.80
2022-12-19T08:21:10.784Z,44.93
2022-12-19T08:23:41.037Z,30.37
2022-12-19T08:26:13.832Z,38.57
2022-12-19T08:28:41.405Z,35.17
2022-12-19T08:31:10.922Z,40.67
2022-12-19T08:33:38.392Z,43.10
2022-12-19T08:36:14.445Z,43.77
2022-12-19T08:38:42.103Z,44.63
2022-12-19T08:41:10.063Z,46.13
2022-12-19T08:43:37.377Z,38.37
2022-12-19T08:46:05.623Z,33.57
2022-12-19T08:48:33.809Z,38.33
2022-12-19T08:51:04.199Z,50.10
2022-12-19T08:53:33.393Z,44.87
2022-12-19T08:56:02.964Z,35.93
2022-12-19T08:58:30.897Z,50.10
2022-12-19T09:01:05.578Z,35.43
2022-12-19T09:03:42.857Z,46.40
2022-12-19T09:09:15.581Z,36.77
2022-12-19T09:11:47.354Z,36.50
2022-12-19T09:14:21.394Z,39.50
2022-12-19T09:16:49.356Z,28.30
2022-12-19T09:19:20.381Z,39.93
2022-12-19T09:21:48.148Z,29.63
2022-12-19T09:24:16.249Z,36.27
2022-12-19T09:26:45.026Z,34.40
2022-12-19T09:29:20.480Z,36.20
2022-12-19T09:31:55.708Z,44.87
2022-12-19T09:34:24.862Z,33.83
2022-12-19T09:36:59.772Z,44.07
2022-12-19T09:39:27.447Z,42.67
2022-12-19T09:42:03.794Z,40.77
2022-12-19T09:44:51.734Z,30.90
2022-12-19T09:47:24.241Z,36.60
2022-12-19T09:49:54.593Z,27.70
2022-12-19T09:52:39.514Z,51.23
2022-12-19T09:55:45.952Z,31.50
2022-12-19T09:58:13.386Z,27.03
2022-12-19T10:00:45.056Z,29.93
2022-12-19T10:03:12.658Z,25.87
2022-12-19T10:07:22.102Z,24.77
2022-12-19T10:10:46.346Z,28.73
2022-12-19T10:12:45.911Z,26.17
2022-12-19T10:15:27.597Z,26.73
2022-12-19T10:18:00.993Z,34.03
2022-12-19T10:20:33.201Z,37.97
2022-12-19T10:23:17.006Z,23.40
2022-12-19T10:26:18.452Z,29.70
2022-12-19T10:29:17.550Z,25.50
2022-12-19T10:31:59.231Z,27.90
2022-12-19T10:34:40.826Z,26.87
2022-12-19T10:37:39.822Z,28.37
2022-12-19T10:40:20.985Z,34.50
2022-12-19T10:43:10.866Z,28.10
2022-12-19T10:45:50.128Z,27.67
2022-12-19T10:48:31.259Z,61.40
2022-12-19T10:51:06.202Z,26.97
2022-12-19T10:53:34.956Z,101.63
2022-12-19T10:56:13.111Z,71.10
2022-12-19T10:58:45.078Z,75.37
2022-12-19T11:01:47.195Z,42.63
2022-12-19T11:04:35.127Z,48.63
2022-12-19T11:07:07.449Z,35.20
2022-12-19T11:09:39.811Z,39.20
2022-12-19T11:16:41.822Z,41.93
2022-12-19T11:18:13.294Z,85.40
2022-12-19T11:28:06.738Z,33.80
2022-12-19T11:29:54.650Z,26.20
2022-12-19T11:29:55.167Z,29.03
2022-12-19T11:30:38.171Z,49.90
2022-12-19T11:33:16.363Z,48.17
2022-12-19T11:35:53.428Z,48.30
2022-12-19T11:38:36.994Z,67.93
2022-12-19T11:41:28.457Z,38.97
2022-12-19T11:43:59.674Z,29.30
2022-12-19T11:46:34.907Z,41.27
2022-12-19T11:49:29.455Z,46.50
2022-12-19T11:53:02.746Z,34.53
2022-12-19T11:56:16.410Z,40.50
2022-12-19T11:58:51.325Z,28.17
2022-12-19T12:01:38.758Z,39.10
2022-12-19T12:04:24.824Z,39.97
2022-12-19T12:06:54.901Z,39.33
2022-12-19T12:16:00.738Z,45.83
2022-12-19T12:19:04.512Z,33.60
2022-12-19T12:28:26.489Z,57.60
2022-12-19T12:31:26.379Z,47.80
2022-12-19T12:31:39.937Z,57.93
2022-12-19T12:31:45.130Z,29.20
2022-12-19T12:31:58.469Z,30.30
2022-12-19T12:36:53.016Z,53.97
2022-12-19T12:38:26.499Z,33.83
2022-12-19T12:41:55.000Z,64.00
2022-12-19T12:44:32.552Z,33.37
2022-12-19T12:47:15.370Z,66.87
2022-12-19T12:49:44.292Z,88.53
2022-12-19T12:52:20.667Z,62.47
2022-12-19T12:54:50.636Z,61.37
2022-12-19T12:57:38.763Z,77.13
2022-12-19T13:00:27.067Z,39.17
2022-12-19T13:03:11.588Z,46.50
2022-12-19T13:05:55.776Z,77.23
2022-12-19T13:08:27.906Z,84.97
2022-12-19T13:11:53.211Z,77.13
2022-12-19T13:14:36.070Z,43.23
2022-12-19T13:17:12.727Z,47.70
2022-12-19T13:20:05.427Z,52.00
2022-12-19T13:22:34.117Z,66.87
2022-12-19T13:25:02.399Z,85.00
2022-12-19T13:27:34.545Z,94.70
2022-12-19T13:30:02.139Z,48.97
2022-12-19T13:32:41.661Z,51.17
2022-12-19T13:36:32.218Z,40.30
2022-12-19T13:40:00.348Z,73.10
2022-12-19T13:41:49.199Z,62.77
2022-12-19T13:44:22.041Z,56.50
2022-12-19T13:46:52.534Z,51.70
2022-12-19T13:49:28.934Z,54.97
2022-12-19T13:52:01.489Z,51.53
2022-12-19T13:54:34.919Z,58.70
2022-12-19T13:57:08.201Z,47.00
2022-12-19T13:59:40.196Z,47.23
2022-12-19T14:02:15.950Z,43.10
2022-12-19T14:04:45.348Z,55.47
2022-12-19T14:07:40.045Z,63.83
2022-12-19T14:11:33.968Z,74.37
2022-12-19T14:13:57.124Z,62.30
2022-12-19T14:16:39.785Z,62.03
2022-12-19T14:19:29.240Z,53.27
2022-12-19T14:22:20.672Z,57.47
2022-12-19T14:25:33.113Z,57.47
2022-12-19T14:28:21.004Z,81.57
2022-12-19T14:30:55.591Z,106.53
2022-12-19T14:33:43.498Z,66.70
2022-12-19T14:36:26.211Z,117.37
2022-12-19T14:39:22.027Z,115.67
2022-12-19T14:42:04.672Z,92.63
2022-12-19T14:53:52.336Z,95.53
2022-12-19T14:53:52.563Z,70.57
2022-12-19T14:54:40.480Z,75.27
2022-12-19T14:54:41.627Z,97.03
2022-12-19T14:59:06.720Z,57.73
2022-12-19T15:01:36.563Z,68.60
2022-12-19T15:04:49.513Z,48.17
2022-12-19T15:07:07.655Z,49.90
2022-12-19T15:11:05.269Z,69.30
2022-12-19T15:14:47.998Z,108.40
2022-12-19T15:16:27.833Z,89.63
2022-12-19T15:19:01.906Z,129.37
2022-12-19T15:21:31.778Z,93.83
2022-12-19T15:23:59.372Z,113.23
2022-12-19T15:26:36.864Z,109.20
2022-12-19T15:29:16.596Z,128.33
2022-12-19T15:31:47.349Z,88.20
2022-12-19T15:34:40.164Z,89.03
2022-12-19T15:37:13.730Z,76.40
2022-12-19T15:39:46.463Z,64.63
2022-12-19T15:42:22.938Z,67.40
2022-12-19T15:44:54.095Z,111.60
2022-12-19T15:47:51.153Z,126.37
2022-12-19T15:50:39.392Z,106.47
2022-12-19T15:53:42.700Z,88.60
2022-12-19T15:56:33.425Z,58.50
2022-12-19T15:59:05.293Z,74.17
2022-12-19T16:01:34.542Z,135.27
2022-12-19T16:04:14.798Z,80.77
2022-12-19T16:06:42.656Z,148.77
2022-12-19T16:09:39.397Z,240.43
2022-12-19T16:12:07.435Z,282.57
2022-12-19T16:14:48.981Z,427.43
2022-12-19T16:17:26.099Z,224.27
2022-12-19T16:19:56.655Z,147.00
2022-12-19T16:22:28.192Z,132.03
2022-12-19T16:24:59.489Z,154.20
2022-12-19T16:27:29.861Z,182.70
2022-12-19T16:30:04.423Z,171.37
2022-12-19T16:32:32.070Z,177.67
2022-12-19T16:35:05.750Z,181.43
2022-12-19T16:37:33.788Z,170.23
2022-12-19T16:40:03.054Z,157.60
2022-12-19T16:42:34.258Z,142.07
2022-12-19T16:45:16.968Z,133.10
2022-12-19T16:47:45.888Z,152.90
2022-12-19T16:50:30.847Z,166.67
2022-12-19T16:52:58.549Z,127.90
2022-12-19T16:55:27.082Z,126.80
2022-12-19T16:57:56.747Z,142.73
2022-12-19T17:00:26.456Z,152.37
2022-12-19T17:03:11.692Z,187.10
2022-12-19T17:05:39.269Z,134.87
2022-12-19T17:08:13.209Z,161.47
2022-12-19T17:10:44.576Z,98.57
2022-12-19T17:13:21.599Z,60.33
2022-12-19T17:15:54.496Z,56.93
2022-12-19T17:18:27.707Z,53.97
2022-12-19T17:20:57.282Z,58.50
2022-12-19T17:23:26.460Z,61.93
2022-12-19T17:25:55.349Z,53.23
2022-12-19T17:28:23.631Z,59.93
2022-12-19T17:30:55.672Z,120.10
2022-12-19T17:33:34.302Z,162.70
2022-12-19T17:36:03.294Z,132.20
2022-12-19T17:38:31.172Z,131.43
2022-12-19T17:41:00.573Z,127.37
2022-12-19T17:43:28.433Z,177.63
2022-12-19T17:45:56.022Z,185.57
2022-12-19T17:48:32.842Z,181.87
2022-12-19T17:51:00.815Z,123.67
2022-12-19T17:53:28.441Z,169.70
2022-12-19T17:55:56.101Z,238.00
2022-12-19T17:58:24.369Z,188.93
2022-12-19T18:00:53.051Z,160.67
2022-12-19T18:03:27.410Z,125.10
2022-12-19T18:05:55.932Z,114.67
2022-12-19T18:08:32.150Z,105.03
2022-12-19T18:11:05.103Z,118.97
2022-12-19T18:13:33.295Z,119.30
2022-12-19T18:16:02.842Z,90.47
2022-12-19T18:18:40.574Z,56.80
2022-12-19T18:21:11.666Z,82.13
2022-12-19T18:23:43.066Z,118.63
2022-12-19T18:26:12.294Z,79.50
2022-12-19T18:28:41.251Z,84.10
2022-12-19T18:31:26.417Z,137.27
2022-12-19T18:34:03.607Z,149.70
2022-12-19T18:36:41.021Z,76.40
2022-12-19T18:39:23.288Z,76.03
2022-12-19T18:41:53.971Z,114.27
2022-12-19T18:44:26.668Z,90.30
2022-12-19T18:46:54.546Z,89.50
2022-12-19T18:49:26.409Z,67.80
2022-12-19T18:51:56.236Z,62.07
2022-12-19T18:57:09.262Z,82.70
2022-12-19T18:59:38.019Z,127.20
2022-12-19T19:02:24.872Z,96.33
2022-12-19T19:04:56.562Z,72.40
2022-12-19T19:07:27.705Z,80.97
2022-12-19T19:09:56.229Z,67.70
2022-12-19T19:12:29.329Z,58.40
2022-12-19T19:14:57.368Z,146.00
2022-12-19T19:17:31.335Z,193.80
2022-12-19T19:20:04.878Z,155.70
2022-12-19T19:22:49.711Z,101.43
2022-12-19T19:25:21.215Z,150.07
2022-12-19T19:27:51.541Z,162.93
2022-12-19T19:30:31.757Z,96.37
2022-12-19T19:33:11.131Z,138.97
2022-12-19T19:35:39.498Z,114.50
2022-12-19T19:38:09.317Z,170.83
2022-12-19T19:40:42.716Z,95.83
2022-12-19T19:43:14.868Z,78.07
2022-12-19T19:45:57.626Z,71.17
2022-12-19T19:48:29.221Z,64.50
2022-12-19T19:51:00.104Z,79.47
2022-12-19T19:53:28.274Z,49.57
2022-12-19T19:56:03.029Z,56.20
2022-12-19T20:01:24.534Z,58.60
2022-12-19T20:03:52.956Z,76.40
2022-12-19T20:06:21.121Z,76.57
2022-12-19T20:08:53.011Z,67.20
2022-12-19T20:14:02.290Z,42.03
2022-12-19T20:16:29.578Z,55.23
2022-12-19T20:18:56.863Z,59.97
2022-12-19T20:21:25.316Z,55.40
2022-12-19T20:23:52.794Z,75.47
2022-12-19T20:26:20.417Z,72.60
2022-12-19T20:28:50.381Z,113.90
2022-12-19T20:31:26.547Z,87.20
2022-12-19T20:33:57.189Z,83.13
2022-12-19T20:36:25.411Z,73.43
2022-12-19T20:38:52.812Z,96.73
2022-12-19T20:41:20.053Z,229.07
2022-12-19T20:43:48.436Z,120.20
2022-12-19T20:46:18.027Z,84.00
2022-12-19T20:48:46.575Z,100.33
2022-12-19T20:51:15.422Z,80.90
2022-12-19T20:53:43.509Z,88.40
2022-12-19T20:56:15.055Z,84.37
2022-12-19T20:58:42.887Z,117.63
2022-12-19T21:01:13.503Z,123.93
2022-12-19T21:03:41.540Z,74.57
2022-12-19T21:06:10.664Z,60.73
2022-12-19T21:08:39.028Z,71.37
2022-12-19T21:11:07.810Z,70.10
2022-12-19T21:13:36.055Z,78.47
2022-12-19T21:16:07.270Z,47.17
2022-12-19T21:18:35.706Z,134.27
2022-12-19T21:21:04.132Z,75.97
2022-12-19T21:23:31.373Z,99.63
2022-12-19T21:26:01.246Z,88.57
2022-12-19T21:28:28.679Z,100.20
2022-12-19T21:31:00.325Z,102.70
2022-12-19T21:33:28.047Z,117.60
2022-12-19T21:35:55.456Z,98.87
2022-12-19T21:38:23.379Z,114.53
2022-12-19T21:40:50.692Z,113.03
2022-12-19T21:43:17.810Z,86.87
2022-12-19T21:45:45.094Z,79.50
2022-12-19T21:48:12.311Z,94.60
2022-12-19T21:50:39.420Z,91.57
2022-12-19T21:53:06.697Z,86.23
2022-12-19T21:55:33.933Z,67.23
2022-12-19T21:58:01.199Z,87.57
2022-12-19T22:00:29.997Z,127.57
2022-12-19T22:03:13.233Z,96.63
2022-12-19T22:05:41.971Z,75.90
2022-12-19T22:08:11.400Z,84.13
2022-12-19T22:10:40.185Z,225.73
2022-12-19T22:13:07.339Z,264.77
2022-12-19T22:15:36.660Z,253.20
2022-12-19T22:18:04.270Z,236.17
2022-12-19T22:20:31.449Z,132.33
2022-12-19T22:23:01.460Z,276.37
2022-12-19T22:25:28.748Z,384.70
2022-12-19T22:27:59.444Z,304.90
2022-12-19T22:30:26.644Z,339.47
2022-12-19T22:32:57.069Z,173.00
2022-12-19T22:35:24.355Z,122.20
2022-12-19T22:37:51.578Z,115.10
2022-12-19T22:40:18.856Z,142.20
2022-12-19T22:42:46.043Z,68.73
2022-12-19T22:45:13.287Z,62.10
2022-12-19T22:47:43.724Z,50.23
2022-12-19T22:50:11.115Z,61.20
2022-12-19T22:52:39.564Z,91.43
2022-12-19T22:55:07.342Z,75.67
2022-12-19T22:57:34.724Z,69.70
2022-12-19T23:00:01.952Z,49.20
2022-12-19T23:02:29.409Z,49.97
2022-12-19T23:04:56.688Z,79.73
2022-12-19T23:07:23.922Z,107.20
2022-12-19T23:09:51.105Z,97.37
2022-12-19T23:12:18.429Z,102.47
2022-12-19T23:14:45.927Z,86.40
2022-12-19T23:17:13.050Z,53.43
2022-12-19T23:19:40.466Z,61.97
2022-12-19T23:22:07.685Z,70.90
2022-12-19T23:24:35.483Z,52.70
2022-12-19T23:27:02.908Z,100.63
2022-12-19T23:29:30.308Z,71.80
2022-12-19T23:31:57.480Z,58.37
2022-12-19T23:34:24.683Z,53.47
2022-12-19T23:39:39.189Z,66.73
2022-12-19T23:42:06.413Z,84.17
2022-12-19T23:44:33.723Z,69.17
2022-12-19T23:47:03.530Z,57.17
2022-12-19T23:49:32.326Z,50.97
2022-12-19T23:51:59.472Z,58.97
2022-12-19T23:54:26.913Z,43.87
2022-12-19T23:56:54.237Z,47.87
2022-12-19T23:59:21.442Z,48.97
